Latest Weather Observations for Gabo Island

IDV60801

Issued at 6:32 pm EST Saturday 22 July 2017 (issued every 30 minutes, with the page automatically refreshed every 10 minutes)

About weather observations | Map of weather stations | Latest weather observations for VIC | Other Formats
Station Details ID: 084016 Name: GABO ISLAND LIGHTHOUSE Lat: -37.57 Lon: 149.92 Height: 15.2 m
Data from the previous 72 hours. | See also: Recent months at Gabo Island
Date/Time
EST
Temp
°C
App
Temp
°C
Dew
Point
°C
Rel
Hum
%
Delta-T
°C
Wind Press
QNH
hPa
Press
MSL
hPa
Rain since
9am
mm
Dir  Spd
km/h
Gust
km/h
Spd
kts
Gust
kts
22/06:30pm 10.2 7.9 7.3 82 1.4 NNE 9 11 5 6 1015.7 - 0.0
22/06:00pm 10.7 7.9 6.9 77 1.8 N 11 13 6 7 1015.5 1015.5 0.0
22/05:30pm 11.1 7.6 7.3 77 1.8 N 15 19 8 10 1015.6 - 0.0
22/05:00pm 12.3 8.4 7.3 71 2.4 N 17 20 9 11 1015.3 - 0.0
22/04:30pm 12.8 8.4 6.5 65 3.0 NNE 19 20 10 11 1015.4 - 0.0
22/04:00pm 13.5 9.1 6.6 63 3.3 NNE 19 20 10 11 1015.4 - 0.0
22/03:30pm 14.1 10.2 6.9 62 3.5 NNE 17 20 9 11 1015.6 - 0.0
22/03:00pm 14.2 9.9 6.8 61 3.6 NE 19 22 10 12 1015.6 1015.7 0.0
22/02:30pm 14.3 10.4 6.9 61 3.6 NE 17 20 9 11 1015.9 - 0.0
22/02:00pm 14.5 11.9 4.3 50 4.7 ENE 7 9 4 5 1016.2 - 0.0
22/01:30pm 14.1 11.9 5.4 56 4.1 E 6 7 3 4 1016.8 - 0.0
22/01:00pm 14.0 11.3 3.9 50 4.6 E 7 9 4 5 1017.2 - 0.0
22/12:30pm 13.4 10.7 3.9 52 4.3 S 7 13 4 7 1018.0 - 0.0
22/12:00pm 13.0 9.8 3.0 50 4.4 WSW 9 13 5 7 1018.7 1018.8 0.0
22/11:30am 13.2 10.2 4.2 54 4.1 WSW 9 11 5 6 1019.1 - 0.0
22/11:00am 13.2 10.2 3.9 53 4.2 WNW 9 13 5 7 1019.8 - 0.0
22/10:30am 12.7 9.5 2.9 51 4.3 NW 9 11 5 6 1020.1 - 0.0
22/10:00am 11.9 9.1 5.1 63 3.1 NW 9 13 5 7 1020.3 - 0.0
22/09:30am 10.4 7.2 3.0 60 3.2 NW 9 13 5 7 1020.4 - 0.0
22/09:00am 8.9 5.1 3.8 70 2.2 W 13 19 7 10 1020.6 1020.7 0.0
22/08:30am 8.6 6.9 4.0 73 2.0 W 2 9 1 5 1020.6 - 0.0
22/08:00am 7.7 4.9 3.2 73 1.9 NNW 7 13 4 7 1020.5 - 0.0
22/07:30am 6.6 2.3 3.5 80 1.3 WNW 15 19 8 10 1020.7 - 0.0
22/07:00am 7.2 3.4 3.9 79 1.4 WNW 13 15 7 8 1020.8 - 0.0
22/06:30am 7.0 3.6 4.0 81 1.3 WNW 11 15 6 8 1020.3 - 0.0
22/06:00am 6.1 1.6 4.0 86 0.9 W 17 17 9 9 1020.3 1020.3 0.0
22/05:30am 6.8 2.4 4.5 85 1.0 W 17 20 9 11 1020.3 - 0.0
22/05:00am 6.5 2.4 4.6 88 0.8 WNW 15 17 8 9 1020.1 - 0.0
22/04:30am 6.4 2.0 4.5 88 0.8 WNW 17 20 9 11 1020.3 - 0.0
22/04:00am 6.3 1.8 4.4 88 0.8 WNW 17 19 9 10 1020.3 - 0.0
22/03:30am 7.1 2.7 5.0 86 0.9 WNW 17 20 9 11 1020.7 - 0.0
22/03:00am 8.4 4.4 5.0 79 1.5 NW 15 17 8 9 1020.9 1020.9 0.0
22/02:30am 7.7 3.7 4.7 81 1.3 WNW 15 19 8 10 1021.2 - 0.0
22/02:00am 7.6 3.2 4.6 81 1.3 WNW 17 20 9 11 1021.5 - 0.0
22/01:30am 8.1 4.0 4.4 77 1.6 NW 15 17 8 9 1021.4 - 0.0
22/01:00am 8.3 3.8 4.2 75 1.8 NW 17 20 9 11 1021.7 - 0.0
22/12:30am 8.4 3.6 4.5 76 1.7 NW 19 22 10 12 1022.4 - 0.0
22/12:00am 8.2 3.4 4.5 77 1.6 NW 19 22 10 12 1022.5 1022.6 0.0
 
Date/Time
EST
Temp
°C
App
Temp
°C
Dew
Point
°C
Rel
Hum
%
Delta-T
°C
Wind Press
QNH
hPa
Press
MSL
hPa
Rain since
9am
mm
Dir  Spd
km/h
Gust
km/h
Spd
kts
Gust
kts
21/11:30pm 8.5 3.7 4.6 76 1.7 NW 19 24 10 13 1022.8 - 0.0
21/11:00pm 8.5 4.1 4.9 78 1.6 NW 17 20 9 11 1022.8 - 0.0
21/10:30pm 8.8 4.9 5.2 78 1.6 WNW 15 19 8 10 1022.9 - 0.0
21/10:00pm 9.1 5.1 5.1 76 1.8 WNW 15 19 8 10 1022.9 - 0.0
21/09:30pm 9.5 5.1 5.0 73 2.0 WNW 17 20 9 11 1023.0 - 0.0
21/09:00pm 9.4 5.1 5.2 75 1.9 WNW 17 20 9 11 1022.9 1022.9 0.0
21/08:30pm 9.2 4.9 5.2 76 1.8 WNW 17 20 9 11 1023.0 - 0.0
21/08:00pm 9.4 4.8 5.7 78 1.7 WNW 19 24 10 13 1023.0 - 0.0
21/07:30pm 9.8 5.1 5.9 77 1.8 W 20 26 11 14 1022.7 - 0.0
21/07:00pm 10.6 4.8 6.1 74 2.1 WSW 26 32 14 17 1022.6 - 0.0
21/06:30pm 10.7 4.8 5.9 72 2.2 WSW 26 32 14 17 1022.4 - 0.0
21/06:00pm 10.9 3.8 5.7 70 2.4 WSW 32 39 17 21 1022.2 1022.1 0.0
21/05:30pm 11.3 4.2 6.2 71 2.4 WSW 33 43 18 23 1022.0 - 0.0
21/05:00pm 11.5 3.9 5.9 68 2.6 WSW 35 43 19 23 1021.7 - 0.0
21/04:30pm 11.7 3.4 5.9 67 2.7 WSW 39 46 21 25 1021.6 - 0.0
21/04:00pm 11.9 3.9 5.6 65 2.9 WSW 37 48 20 26 1021.6 - 0.0
21/03:30pm 12.1 3.9 6.4 68 2.7 WSW 39 46 21 25 1021.4 - 0.0
21/03:00pm 12.4 3.8 6.5 67 2.8 WSW 41 50 22 27 1021.3 1021.3 0.0
21/02:30pm 12.3 4.1 6.6 68 2.7 WSW 39 46 21 25 1021.3 - 0.0
21/02:00pm 12.6 5.3 7.2 69 2.6 WSW 35 44 19 24 1021.2 - 0.0
21/01:30pm 12.5 3.7 7.1 69 2.6 WSW 43 54 23 29 1021.1 - 0.0
21/01:00pm 12.0 2.5 6.7 70 2.5 SW 46 54 25 29 1021.3 - 0.0
21/12:30pm 11.9 4.8 8.0 77 1.9 WSW 35 44 19 24 1021.5 - 0.0
21/12:00pm 12.1 5.1 8.4 78 1.8 WSW 35 44 19 24 1021.5 1021.5 0.0
21/11:30am 11.8 3.2 8.1 78 1.8 WSW 43 52 23 28 1021.7 - 0.0
21/11:00am 11.5 4.9 8.7 83 1.4 WSW 33 43 18 23 1022.0 - 0.0
21/10:30am 10.9 3.8 8.2 83 1.3 W 35 46 19 25 1021.9 - 0.0
21/10:00am 10.9 3.9 8.4 84 1.2 W 35 43 19 23 1021.8 - 0.0
21/09:30am 10.2 3.2 8.3 88 0.9 W 35 43 19 23 1021.6 - 0.0
21/09:00am 9.9 3.3 8.5 91 0.7 W 33 41 18 22 1021.3 1021.3 10.0
21/08:30am 10.1 4.5 8.7 91 0.7 WSW 28 37 15 20 1021.2 - 10.0
21/08:00am 9.4 3.0 8.4 93 0.5 WSW 32 41 17 22 1020.8 - 10.0
21/07:30am 9.3 2.1 7.8 90 0.7 W 35 41 19 22 1020.2 - 8.8
21/07:00am 9.3 2.2 8.0 92 0.6 W 35 43 19 23 1020.2 - 8.8
21/06:30am 9.1 1.9 7.6 90 0.7 W 35 46 19 25 1020.0 - 8.4
21/06:00am 8.7 2.0 7.2 90 0.7 W 32 43 17 23 1019.7 1019.7 8.4
21/05:30am 8.5 1.5 7.0 90 0.7 W 33 46 18 25 1019.2 - 8.4
21/05:00am 8.9 2.0 7.4 90 0.7 W 33 41 18 22 1019.1 - 8.4
21/04:30am 8.7 0.7 7.4 91 0.6 W 39 44 21 24 1018.8 - 8.4
21/04:00am 8.6 0.9 7.1 90 0.7 W 37 44 20 24 1018.3 - 8.4
21/03:30am 8.5 0.4 7.2 91 0.6 W 39 48 21 26 1018.5 - 8.4
21/03:00am 8.6 0.9 7.3 91 0.6 W 37 44 20 24 1018.3 1018.3 8.4
21/02:30am 8.3 1.3 6.8 90 0.7 W 33 41 18 22 1018.5 - 8.2
21/02:00am 8.5 0.5 7.4 93 0.5 W 39 48 21 26 1018.2 - 8.2
21/01:30am 8.6 0.2 7.3 91 0.6 W 41 48 22 26 1017.9 - 8.2
21/01:00am 8.6 -0.2 7.3 91 0.6 WSW 43 54 23 29 1017.7 - 8.2
21/12:30am 8.3 0.2 6.8 90 0.7 W 39 50 21 27 1017.2 - 7.8
21/12:00am 8.5 0.7 6.8 89 0.8 W 37 48 20 26 1017.4 1017.3 7.8
 
Date/Time
EST
Temp
°C
App
Temp
°C
Dew
Point
°C
Rel
Hum
%
Delta-T
°C
Wind Press
QNH
hPa
Press
MSL
hPa
Rain since
9am
mm
Dir  Spd
km/h
Gust
km/h
Spd
kts
Gust
kts
20/11:30pm 8.5 0.7 6.8 89 0.8 W 37 44 20 24 1017.2 - 7.8
20/11:00pm 8.8 0.3 7.1 89 0.8 W 41 50 22 27 1017.0 - 7.8
20/10:30pm 8.8 0.8 7.5 91 0.6 W 39 46 21 25 1016.9 - 7.6
20/10:00pm 8.8 2.1 7.5 91 0.6 WSW 32 43 17 23 1017.0 - 7.6
20/09:30pm 9.0 0.5 7.1 88 0.9 W 41 52 22 28 1016.2 - 5.8
20/09:00pm 10.2 -1.3 7.0 80 1.5 SW 57 72 31 39 1015.8 1015.8 5.8
20/08:52pm 10.3 -2.8 6.9 79 1.6 SW 65 72 35 39 1015.8 - 5.8
20/08:35pm 9.4 0.9 7.1 85 1.1 WSW 41 59 22 32 1015.7 - 5.8
20/08:30pm 8.9 0.8 7.0 88 0.9 WSW 39 52 21 28 1015.7 - 5.6
20/08:00pm 8.5 -1.5 6.3 86 1.0 W 48 57 26 31 1014.6 - 5.4
20/07:30pm 8.7 -1.7 6.1 84 1.2 W 50 59 27 32 1014.6 - 5.4
20/07:00pm 8.9 -1.1 6.1 82 1.3 W 48 61 26 33 1014.6 - 5.4
20/06:30pm 8.7 -1.0 5.6 81 1.4 W 46 57 25 31 1014.2 - 5.4
20/06:00pm 8.6 -1.8 6.0 84 1.2 W 50 59 27 32 1013.9 1013.7 5.4
20/05:47pm 8.8 -1.2 4.5 74 1.9 W 46 65 25 35 1013.5 - 5.4
20/05:30pm 9.0 -0.5 6.6 85 1.1 W 46 63 25 34 1013.3 - 5.2
20/05:16pm 9.4 -1.6 5.2 75 1.9 WSW 52 72 28 39 1012.9 - 5.2
20/05:00pm 9.4 -1.0 6.1 80 1.5 W 50 67 27 36 1012.6 - 5.2
20/04:56pm 9.2 -0.8 6.2 81 1.4 W 48 67 26 36 1012.5 - 5.2
20/04:30pm 9.4 0.1 5.9 79 1.6 W 44 59 24 32 1012.3 - 5.2
20/04:14pm 9.8 -0.6 5.9 77 1.8 WSW 50 69 27 37 1012.0 - 5.2
20/04:00pm 9.6 -1.2 6.1 79 1.6 WSW 52 65 28 35 1012.0 - 5.2
20/03:37pm 9.3 -1.0 6.3 81 1.4 W 50 69 27 37 1011.7 - 5.2
20/03:30pm 9.4 -0.5 6.4 81 1.4 W 48 61 26 33 1011.7 - 5.2
20/03:03pm 9.9 -0.5 6.2 78 1.7 WSW 50 69 27 37 1011.2 - 5.0
20/03:00pm 10.0 0.7 6.1 77 1.8 W 44 63 24 34 1010.9 1010.9 5.0
20/02:30pm 9.1 -2.1 6.1 81 1.4 WSW 54 80 29 43 1010.8 - 5.0
20/02:03pm 9.1 -2.9 4.8 74 1.9 WSW 57 76 31 41 1010.1 - 4.2
20/02:00pm 9.0 -2.8 4.7 74 1.9 WSW 56 70 30 38 1009.9 - 4.2
20/01:30pm 10.3 -1.3 5.7 73 2.1 SW 56 80 30 43 1009.7 - 4.0
20/01:17pm 9.8 -1.2 5.2 73 2.1 WSW 52 72 28 39 1009.4 - 4.0
20/01:00pm 9.9 0.7 6.5 79 1.6 WSW 44 54 24 29 1009.6 - 4.0
20/12:30pm 8.7 -2.5 6.1 84 1.2 W 54 67 29 36 1009.7 - 4.0
20/12:06pm 9.0 -1.8 6.2 82 1.3 W 52 70 28 38 1009.7 - 4.0
20/12:00pm 8.8 -2.8 5.7 81 1.4 W 56 70 30 38 1009.7 1009.6 4.0
20/11:37am 8.4 -2.6 6.7 89 0.8 WSW 54 72 29 39 1010.1 - 4.0
20/11:30am 8.2 -3.8 6.7 90 0.7 WSW 59 72 32 39 1010.2 - 3.8
20/11:00am 8.6 -2.8 6.9 89 0.8 WSW 56 70 30 38 1010.4 - 2.6
20/10:32am 8.5 -3.5 6.6 88 0.9 WSW 59 78 32 42 1010.6 - 1.6
20/10:30am 8.9 -3.0 7.0 88 0.9 WSW 59 72 32 39 1010.6 - 1.4
20/10:20am 8.5 -3.6 6.1 85 1.1 WSW 59 78 32 42 1010.4 - 1.2
20/10:00am 9.2 -2.3 6.4 83 1.3 WSW 56 72 30 39 1010.4 - 0.2
20/09:31am 9.6 -2.0 5.9 78 1.7 W 56 74 30 40 1010.0 - 0.2
20/09:30am 9.5 -1.7 6.0 79 1.6 W 54 70 29 38 1010.0 - 0.2
20/09:01am 9.8 -1.2 6.6 80 1.5 WSW 54 72 29 39 1009.9 - 0.0
20/09:00am 9.4 -2.3 6.4 81 1.4 WSW 57 72 31 39 1009.9 1009.8 6.4
20/08:53am 8.9 -3.5 6.5 85 1.1 SW 61 80 33 43 1009.7 - 6.4
20/08:30am 10.2 -1.2 5.1 70 2.3 W 54 74 29 40 1009.6 - 6.2
20/08:01am 10.0 -1.1 4.7 69 2.4 W 52 70 28 38 1009.4 - 6.2
20/08:00am 8.6 -2.4 5.1 79 1.6 W 52 69 28 37 1009.5 - 6.2
20/07:30am 10.3 -1.7 4.5 67 2.6 W 57 72 31 39 1009.1 - 6.2
20/07:01am 10.4 -1.4 4.9 69 2.5 W 56 74 30 40 1009.1 - 6.2
20/07:00am 10.5 -1.4 5.2 70 2.4 W 57 74 31 40 1009.2 - 6.2
20/06:35am 10.7 -0.9 3.7 62 3.1 W 54 72 29 39 1009.0 - 6.2
20/06:30am 10.6 -1.1 3.6 62 3.1 WSW 54 69 29 37 1009.0 - 6.2
20/06:00am 10.6 -0.1 4.4 65 2.8 W 50 63 27 34 1008.8 1008.9 6.2
20/05:37am 10.6 -1.2 2.7 58 3.4 W 54 72 29 39 1008.8 - 6.2
20/05:30am 10.6 -0.7 3.3 60 3.2 W 52 65 28 35 1008.7 - 6.2
20/05:00am 10.5 -0.8 3.4 61 3.1 W 52 74 28 40 1008.9 - 6.2
20/04:32am 10.3 -0.1 4.0 65 2.8 W 48 67 26 36 1008.8 - 6.2
20/04:30am 10.4 -0.4 4.1 65 2.8 W 50 67 27 36 1008.8 - 6.2
20/04:03am 10.3 -0.6 3.7 63 2.9 W 50 69 27 37 1008.9 - 6.2
20/04:00am 10.2 -0.6 3.9 65 2.8 W 50 65 27 35 1008.9 - 6.2
20/03:30am 10.2 -0.9 4.4 67 2.6 W 52 69 28 37 1009.3 - 6.2
20/03:00am 9.9 -1.7 4.0 67 2.6 W 54 65 29 35 1009.5 1009.5 6.2
20/02:44am 9.8 -1.0 4.2 68 2.5 W 50 69 27 37 1009.5 - 6.2
20/02:30am 9.8 -2.2 3.6 65 2.7 W 56 69 30 37 1009.5 - 6.2
20/02:00am 10.3 -2.6 4.0 65 2.8 W 61 80 33 43 1009.6 - 6.2
20/01:48am 10.0 -1.3 3.6 64 2.8 W 52 74 28 40 1009.6 - 6.2
20/01:30am 10.0 -2.1 4.4 68 2.5 W 57 69 31 37 1009.5 - 6.2
20/01:00am 10.2 0.0 5.1 70 2.3 WSW 48 63 26 34 1009.7 - 6.2
20/12:30am 10.0 0.3 5.9 75 1.9 W 46 61 25 33 1010.0 - 6.2
20/12:00am 10.2 -0.2 6.1 76 1.9 W 50 70 27 38 1010.2 1010.2 6.2
 
Date/Time
EST
Temp
°C
App
Temp
°C
Dew
Point
°C
Rel
Hum
%
Delta-T
°C
Wind Press
QNH
hPa
Press
MSL
hPa
Rain since
9am
mm
Dir  Spd
km/h
Gust
km/h
Spd
kts
Gust
kts
19/11:53pm 10.2 -0.1 6.6 78 1.7 WSW 50 70 27 38 1010.3 - 6.2
19/11:30pm 10.2 -0.8 6.6 78 1.7 WSW 54 67 29 36 1010.2 - 6.2
19/11:00pm 10.5 -0.5 6.9 78 1.7 WSW 54 69 29 37 1010.3 - 6.2
19/10:30pm 11.0 0.5 7.2 77 1.8 WSW 52 69 28 37 1010.5 - 6.2
19/10:00pm 11.0 0.2 7.5 79 1.7 WSW 54 69 29 37 1010.3 - 6.2
19/09:30pm 11.3 0.0 7.1 75 2.0 WSW 56 80 30 43 1009.9 - 6.2
19/09:01pm 11.4 1.2 8.4 82 1.5 WSW 52 70 28 38 1010.0 - 6.2
19/09:00pm 11.4 0.7 7.9 79 1.7 WSW 54 67 29 36 1010.0 1010.0 6.2
19/08:45pm 11.5 0.8 8.0 79 1.7 WSW 54 72 29 39 1010.0 - 6.2
19/08:30pm 11.7 0.8 8.7 82 1.5 WSW 56 70 30 38 1009.9 - 6.2
19/08:00pm 11.7 1.6 8.9 83 1.4 WSW 52 69 28 37 1009.5 - 6.2
19/07:57pm 11.6 1.9 9.2 85 1.2 WSW 50 69 27 37 1009.5 - 6.2
19/07:30pm 11.8 2.5 9.2 84 1.3 WSW 48 63 26 34 1009.5 - 5.6
19/07:24pm 12.2 2.0 8.6 78 1.8 WSW 52 70 28 38 1009.4 - 5.6
19/07:00pm 13.2 2.5 8.2 71 2.5 SW 54 69 29 37 1008.9 - 5.6

Other Formats:

Comma delimited format used in spreadsheet applications
http://www.bom.gov.au/fwo/IDV60801/IDV60801.94933.axf

JavaScript Object Notation format (JSON) in row-major order
http://www.bom.gov.au/fwo/IDV60801/IDV60801.94933.json